Aviation Digital Data Service (ADDS)

Output produced by METARs form (1557 UTC 24 August 2019)
found at http://www.aviationweather.gov/metar/data/
 
KLAS 241457Z 2415/2518 VRB05KT P6SM SKC 
     FM241900 19007KT P6SM SKC 
     FM242300 20011G20KT P6SM FEW250 
     FM250300 19008KT P6SM FEW250 
     FM250900 16009KT P6SM SKC